Time;durP1;ratioP1;P1;durP2;ratioP2;P2;SDS_P1;SDS_P2;PMS_P1;PMS_P2;Temp;Humidity;BMP_temperature;BMP_pressure;BME280_temperature;BME280_humidity;BME280_pressure;Samples;Min_cycle;Max_cycle;Signal;HPM_P1;HPM_P2
2022/09/02 00:01:02;;;;;;;6.80;1.87;;;18.10;99.90;;;;;;5075531;28;20187;-68
2022/09/02 00:03:34;;;;;;;5.33;2.07;;;18.10;99.90;;;;;;5074131;28;20598;-69
2022/09/02 00:06:03;;;;;;;7.73;2.57;;;18.20;99.90;;;;;;5075506;28;20696;-69
2022/09/02 00:08:35;;;;;;;5.70;2.30;;;18.10;99.90;;;;;;5075313;28;20637;-67
2022/09/02 00:11:04;;;;;;;7.07;2.30;;;18.10;99.90;;;;;;5075391;28;20653;-68
2022/09/02 00:13:34;;;;;;;2.80;1.60;;;18.10;99.90;;;;;;5075267;28;20731;-68
2022/09/02 00:16:02;;;;;;;5.33;1.73;;;18.20;99.90;;;;;;5075112;28;20190;-68
2022/09/02 00:18:32;;;;;;;5.77;1.83;;;18.20;99.90;;;;;;5075312;28;20222;-69
2022/09/02 00:21:00;;;;;;;6.27;1.97;;;18.30;99.90;;;;;;5075168;28;20215;-69
2022/09/02 00:23:28;;;;;;;4.10;1.63;;;18.40;99.90;;;;;;5075301;28;20170;-68
2022/09/02 00:25:56;;;;;;;7.00;1.90;;;18.30;99.90;;;;;;5075025;28;20172;-69
2022/09/02 00:28:24;;;;;;;6.57;1.80;;;18.40;99.90;;;;;;5074864;28;20172;-68
2022/09/02 00:30:51;;;;;;;5.70;1.87;;;18.50;99.90;;;;;;5074677;28;20180;-69
2022/09/02 00:33:19;;;;;;;5.97;1.60;;;18.80;99.90;;;;;;5074729;28;20312;-68
2022/09/02 00:35:47;;;;;;;7.90;1.97;;;18.70;99.90;;;;;;5074717;28;20188;-68
2022/09/02 00:38:15;;;;;;;7.07;1.83;;;18.60;99.90;;;;;;5074756;28;20211;-70
2022/09/02 00:40:50;;;;;;;4.37;1.80;;;18.80;99.90;;;;;;5074758;28;20218;-68
2022/09/02 00:43:40;;;;;;;5.30;1.97;;;18.90;99.90;;;;;;5074808;28;20270;-69
2022/09/02 00:46:09;;;;;;;5.73;1.70;;;19.10;99.90;;;;;;5074880;28;20550;-69
2022/09/02 00:48:42;;;;;;;6.43;2.27;;;19.10;99.90;;;;;;5074539;28;20641;-69
2022/09/02 00:51:12;;;;;;;3.47;1.97;;;19.00;99.90;;;;;;5074312;28;20704;-70
2022/09/02 00:53:42;;;;;;;4.43;1.67;;;19.00;99.90;;;;;;5074316;28;20676;-69
2022/09/02 00:56:14;;;;;;;5.20;2.00;;;18.90;99.90;;;;;;5073753;28;20184;-69
2022/09/02 00:58:43;;;;;;;5.57;2.00;;;18.60;99.90;;;;;;5074319;28;20172;-68
2022/09/02 01:01:11;;;;;;;4.43;1.60;;;18.50;99.90;;;;;;5074494;28;20184;-68
2022/09/02 01:03:40;;;;;;;4.03;1.77;;;18.60;99.90;;;;;;5074147;28;20184;-68
2022/09/02 01:06:14;;;;;;;8.83;1.70;;;18.70;99.90;;;;;;5074263;28;20195;-69
2022/09/02 01:08:46;;;;;;;7.10;1.80;;;18.80;99.90;;;;;;5074020;28;20185;-68
2022/09/02 01:11:17;;;;;;;7.77;1.57;;;18.90;99.90;;;;;;5074074;28;20172;-69
2022/09/02 01:13:45;;;;;;;4.50;1.50;;;19.00;99.90;;;;;;5074039;28;20689;-68
2022/09/02 01:16:23;;;;;;;6.93;1.77;;;19.00;99.90;;;;;;5073881;28;20183;-69
2022/09/02 01:18:54;;;;;;;3.60;1.50;;;18.90;99.90;;;;;;5074158;28;20179;-68
2022/09/02 01:21:22;;;;;;;9.10;2.27;;;19.00;99.90;;;;;;5073875;28;20172;-69
2022/09/02 01:23:50;;;;;;;2.67;1.60;;;19.00;99.90;;;;;;5073914;28;20183;-68
2022/09/02 01:26:18;;;;;;;7.00;1.87;;;19.00;99.90;;;;;;5073945;28;20182;-69
2022/09/02 01:28:46;;;;;;;6.20;1.67;;;19.00;99.90;;;;;;5073813;28;20653;-68
2022/09/02 01:31:14;;;;;;;5.30;1.70;;;18.80;99.90;;;;;;5073651;28;20653;-69
2022/09/02 01:33:42;;;;;;;8.07;1.87;;;18.80;99.90;;;;;;5073306;28;20293;-67
2022/09/02 01:36:10;;;;;;;4.83;1.60;;;18.80;99.90;;;;;;5073704;28;20255;-69
2022/09/02 01:38:38;;;;;;;6.83;1.67;;;18.80;99.90;;;;;;5073456;28;20247;-68
2022/09/02 01:41:06;;;;;;;8.43;2.50;;;18.60;99.90;;;;;;5073450;28;20172;-68
2022/09/02 01:43:33;;;;;;;8.07;2.47;;;18.60;99.90;;;;;;5073361;28;20174;-68
2022/09/02 01:46:02;;;;;;;8.83;1.87;;;18.50;99.90;;;;;;5068344;28;20271;-70
2022/09/02 01:48:30;;;;;;;6.13;2.33;;;18.60;99.90;;;;;;5071597;28;20184;-70
2022/09/02 01:51:03;;;;;;;7.60;2.03;;;18.60;99.90;;;;;;5070059;28;20302;-70
2022/09/02 01:53:31;;;;;;;5.93;2.00;;;18.60;99.90;;;;;;5069024;28;20215;-71
2022/09/02 01:55:59;;;;;;;5.50;1.80;;;18.50;99.90;;;;;;5070468;28;20690;-71
2022/09/02 01:58:27;;;;;;;6.70;2.50;;;18.50;99.90;;;;;;5070337;28;20179;-71
2022/09/02 02:00:55;;;;;;;10.43;2.73;;;18.40;99.90;;;;;;5058971;28;20177;-71
2022/09/02 02:03:24;;;;;;;7.73;1.90;;;18.40;99.90;;;;;;5051622;28;20591;-71
2022/09/02 02:05:51;;;;;;;7.47;1.90;;;18.40;99.90;;;;;;5031772;28;20233;-71
2022/09/02 02:08:19;;;;;;;9.87;2.07;;;18.30;99.90;;;;;;5030648;28;20598;-71
2022/09/02 02:10:48;;;;;;;6.03;1.87;;;18.00;99.90;;;;;;5031869;28;20256;-71
2022/09/02 02:13:16;;;;;;;6.63;2.20;;;18.00;99.90;;;;;;5051813;28;20230;-71
2022/09/02 02:15:44;;;;;;;5.53;1.90;;;17.90;99.90;;;;;;5071146;28;20186;-71
2022/09/02 02:18:12;;;;;;;5.17;1.93;;;17.80;99.90;;;;;;5071149;28;20707;-71
2022/09/02 02:20:40;;;;;;;12.57;2.70;;;17.80;99.90;;;;;;5070980;28;20282;-71
2022/09/02 02:23:08;;;;;;;14.77;2.53;;;17.90;99.90;;;;;;5070832;28;20184;-71
2022/09/02 02:25:36;;;;;;;7.30;1.90;;;18.00;99.90;;;;;;5071123;28;20180;-70
2022/09/02 02:28:04;;;;;;;6.83;1.93;;;18.00;99.90;;;;;;5070985;28;20190;-71
2022/09/02 02:30:32;;;;;;;9.23;2.13;;;18.00;99.90;;;;;;5070788;28;20210;-71
2022/09/02 02:33:00;;;;;;;7.17;1.90;;;17.90;99.90;;;;;;5070891;28;20265;-71
2022/09/02 02:35:28;;;;;;;6.57;2.40;;;17.80;99.90;;;;;;5071205;28;20744;-71
2022/09/02 02:37:56;;;;;;;5.27;2.20;;;17.90;99.90;;;;;;5071039;28;20180;-70
2022/09/02 02:40:25;;;;;;;5.93;2.07;;;17.90;99.90;;;;;;5071240;28;20196;-70
2022/09/02 02:42:53;;;;;;;6.13;2.33;;;17.90;99.90;;;;;;5071089;28;20235;-70
2022/09/02 02:45:22;;;;;;;6.10;2.10;;;18.10;99.90;;;;;;5070659;28;20184;-70
2022/09/02 02:47:51;;;;;;;7.43;1.93;;;18.20;99.90;;;;;;5071036;28;20615;-71
2022/09/02 02:50:20;;;;;;;5.97;2.20;;;18.50;99.90;;;;;;5070185;28;20231;-70
2022/09/02 02:52:49;;;;;;;4.23;1.53;;;18.60;99.90;;;;;;5070529;28;20249;-69
2022/09/02 02:55:18;;;;;;;7.33;1.80;;;18.60;99.90;;;;;;5051775;28;20584;-70
2022/09/02 02:57:46;;;;;;;6.43;1.70;;;18.50;99.90;;;;;;5051262;28;20216;-72
2022/09/02 03:00:32;;;;;;;5.93;2.00;;;18.60;99.90;;;;;;5051182;28;20657;-71
2022/09/02 03:03:04;;;;;;;6.23;1.90;;;18.70;99.90;;;;;;5061876;28;20191;-71
2022/09/02 03:05:34;;;;;;;7.67;2.23;;;18.80;99.90;;;;;;5069915;28;20185;-72
2022/09/02 03:08:06;;;;;;;7.73;2.10;;;18.80;99.90;;;;;;5070821;28;20195;-70
2022/09/02 03:10:35;;;;;;;5.53;1.67;;;18.70;99.90;;;;;;5070879;28;20195;-72
2022/09/02 03:13:04;;;;;;;8.20;2.10;;;18.70;99.90;;;;;;5069900;28;20247;-70
2022/09/02 03:15:32;;;;;;;5.33;1.90;;;18.80;99.90;;;;;;5050552;28;20177;-71
2022/09/02 03:18:02;;;;;;;8.53;1.93;;;18.80;99.90;;;;;;5036552;28;20185;-70
2022/09/02 03:20:30;;;;;;;6.60;1.70;;;18.80;99.90;;;;;;5074767;28;20716;-71
2022/09/02 03:22:59;;;;;;;5.60;2.20;;;18.90;99.90;;;;;;5073932;28;20700;-71
2022/09/02 03:25:29;;;;;;;5.57;2.00;;;18.90;99.90;;;;;;5074240;28;20187;-71
2022/09/02 03:27:57;;;;;;;4.57;1.77;;;19.00;99.90;;;;;;5074301;28;20176;-70
2022/09/02 03:30:27;;;;;;;7.23;1.87;;;19.00;99.90;;;;;;5074266;28;20317;-72
2022/09/02 03:32:58;;;;;;;7.20;1.80;;;19.10;99.90;;;;;;5072872;28;20216;-69
2022/09/02 03:35:26;;;;;;;8.50;2.20;;;19.20;99.90;;;;;;5074035;28;20176;-70
2022/09/02 03:37:55;;;;;;;7.30;1.70;;;19.30;99.90;;;;;;5074262;28;20171;-71
2022/09/02 03:40:25;;;;;;;9.87;1.43;;;19.30;99.90;;;;;;5073983;28;20202;-71
2022/09/02 03:42:57;;;;;;;4.63;1.43;;;18.80;99.90;;;;;;5073814;28;20182;-71
2022/09/02 03:45:25;;;;;;;4.73;1.47;;;18.90;99.90;;;;;;5074102;28;20323;-70
2022/09/02 03:47:54;;;;;;;7.10;1.90;;;18.90;99.90;;;;;;5064476;28;20176;-71
2022/09/02 03:50:27;;;;;;;4.10;1.50;;;19.00;99.90;;;;;;5058067;28;20212;-70
2022/09/02 03:52:57;;;;;;;4.83;1.70;;;19.30;99.90;;;;;;5065170;28;20200;-69
2022/09/02 03:55:26;;;;;;;4.47;1.43;;;19.40;99.90;;;;;;5074431;28;20173;-71
2022/09/02 03:57:55;;;;;;;4.80;1.53;;;19.20;99.90;;;;;;5074089;28;20716;-70
2022/09/02 04:00:30;;;;;;;8.57;1.27;;;19.20;99.90;;;;;;5074167;28;20263;-71
2022/09/02 04:03:01;;;;;;;7.83;1.70;;;19.10;99.90;;;;;;5073080;28;20608;-70
2022/09/02 04:05:29;;;;;;;11.20;1.90;;;19.00;99.90;;;;;;5072951;28;20168;-69
2022/09/02 04:07:57;;;;;;;3.77;1.20;;;18.80;99.90;;;;;;5073800;28;20195;-72
2022/09/02 04:10:26;;;;;;;8.70;1.53;;;18.60;99.90;;;;;;5073971;28;20168;-70
2022/09/02 04:12:57;;;;;;;7.13;1.77;;;18.50;99.90;;;;;;5074222;28;20338;-70
2022/09/02 04:15:26;;;;;;;6.33;1.83;;;18.10;99.90;;;;;;5073923;28;20179;-70
2022/09/02 04:17:55;;;;;;;5.80;1.40;;;18.20;99.90;;;;;;5072466;28;20172;-69
2022/09/02 04:20:27;;;;;;;3.20;1.60;;;18.10;99.90;;;;;;5073786;28;20782;-69
2022/09/02 04:22:56;;;;;;;4.47;1.80;;;18.10;99.90;;;;;;5073733;28;20175;-71
2022/09/02 04:25:24;;;;;;;4.17;1.63;;;18.00;99.90;;;;;;5072510;28;20206;-70
2022/09/02 04:27:52;;;;;;;5.80;1.97;;;18.00;99.90;;;;;;5073491;28;20167;-70
2022/09/02 04:30:20;;;;;;;8.50;1.57;;;17.90;99.90;;;;;;5072522;28;20186;-70
2022/09/02 04:32:48;;;;;;;7.90;1.63;;;17.80;99.90;;;;;;5073258;28;20275;-69
2022/09/02 04:35:15;;;;;;;4.60;1.43;;;17.70;99.90;;;;;;5073554;28;20199;-70
2022/09/02 04:37:46;;;;;;;10.23;1.60;;;17.70;99.90;;;;;;5073336;28;20169;-70
2022/09/02 04:40:14;;;;;;;5.63;1.70;;;17.60;99.90;;;;;;5073319;28;20180;-70
2022/09/02 04:42:45;;;;;;;5.27;1.80;;;17.40;99.90;;;;;;5072453;28;20188;-71
2022/09/02 04:45:20;;;;;;;6.53;1.90;;;17.30;99.90;;;;;;5072216;28;20275;-71
2022/09/02 04:47:48;;;;;;;10.23;1.50;;;17.30;99.90;;;;;;5072935;28;20180;-71
2022/09/02 04:50:16;;;;;;;5.20;1.73;;;17.10;99.90;;;;;;5072677;28;20224;-71
2022/09/02 04:52:47;;;;;;;6.63;1.77;;;17.20;99.90;;;;;;5072598;28;20180;-71
2022/09/02 04:55:15;;;;;;;5.73;1.87;;;17.10;99.90;;;;;;5071917;28;20196;-70
2022/09/02 04:57:43;;;;;;;5.37;1.73;;;17.00;99.90;;;;;;5071993;28;20213;-69
2022/09/02 05:00:11;;;;;;;3.63;1.60;;;17.00;99.90;;;;;;5071360;28;20630;-70
2022/09/02 05:02:39;;;;;;;9.97;2.30;;;16.80;99.90;;;;;;5072620;28;20191;-70
2022/09/02 05:05:08;;;;;;;4.23;1.50;;;16.70;99.90;;;;;;5072363;28;20188;-70
2022/09/02 05:07:41;;;;;;;6.97;1.87;;;16.70;99.90;;;;;;5072405;28;20261;-70
2022/09/02 05:10:11;;;;;;;7.87;1.63;;;16.70;99.90;;;;;;5071034;28;20186;-70
2022/09/02 05:12:40;;;;;;;4.67;1.50;;;16.70;99.90;;;;;;5072461;28;20190;-71
2022/09/02 05:15:11;;;;;;;4.93;1.47;;;16.70;99.90;;;;;;5072725;28;20191;-70
2022/09/02 05:17:41;;;;;;;7.83;1.97;;;16.70;99.90;;;;;;5072269;28;20190;-70
2022/09/02 05:20:09;;;;;;;6.43;1.63;;;16.60;99.90;;;;;;5072182;28;20180;-71
2022/09/02 05:22:38;;;;;;;5.73;1.90;;;16.50;99.90;;;;;;5072057;28;20176;-71
2022/09/02 05:25:08;;;;;;;5.10;1.80;;;16.50;99.90;;;;;;5071653;28;20212;-70
2022/09/02 05:27:37;;;;;;;6.27;1.40;;;16.40;99.90;;;;;;5072031;28;20191;-70
2022/09/02 05:30:06;;;;;;;8.60;1.93;;;16.30;99.90;;;;;;5072083;28;20262;-70
2022/09/02 05:32:34;;;;;;;2.63;1.43;;;16.30;99.90;;;;;;5071861;28;20654;-69
2022/09/02 05:35:02;;;;;;;4.60;1.30;;;16.20;99.90;;;;;;5073113;28;20553;-71
2022/09/02 05:37:30;;;;;;;3.03;1.07;;;16.20;99.90;;;;;;5071824;28;20184;-70
2022/09/02 05:39:58;;;;;;;4.80;1.40;;;16.10;99.90;;;;;;5071533;28;20186;-70
2022/09/02 05:42:25;;;;;;;4.63;1.60;;;16.10;99.90;;;;;;5071426;28;20245;-70
2022/09/02 05:44:53;;;;;;;3.57;1.17;;;16.10;99.90;;;;;;5072232;28;20196;-70
2022/09/02 05:47:24;;;;;;;9.57;1.60;;;16.10;99.90;;;;;;5071162;28;20180;-70
2022/09/02 05:49:55;;;;;;;6.27;1.30;;;16.10;99.90;;;;;;5070690;28;20229;-70
2022/09/02 05:52:24;;;;;;;7.43;1.83;;;16.10;99.90;;;;;;5070107;28;20234;-71
2022/09/02 05:54:54;;;;;;;3.40;1.33;;;16.10;99.90;;;;;;5070574;28;20234;-69
2022/09/02 05:57:23;;;;;;;5.83;1.00;;;16.00;99.90;;;;;;5071411;28;20190;-71
2022/09/02 05:59:55;;;;;;;7.67;1.40;;;15.90;99.90;;;;;;5067281;28;20590;-69
2022/09/02 06:02:25;;;;;;;4.57;1.30;;;15.90;99.90;;;;;;5036037;28;20307;-71
2022/09/02 06:04:54;;;;;;;5.87;1.50;;;15.80;99.90;;;;;;5072047;28;20546;-71
2022/09/02 06:07:26;;;;;;;5.47;1.30;;;15.80;99.90;;;;;;5071556;28;20187;-71
2022/09/02 06:09:54;;;;;;;5.27;1.83;;;15.70;99.90;;;;;;5070498;28;20226;-70
2022/09/02 06:12:22;;;;;;;4.03;1.27;;;15.70;99.90;;;;;;5071632;28;20253;-70
2022/09/02 06:14:50;;;;;;;10.33;1.40;;;15.60;99.90;;;;;;5030581;28;20244;-71
2022/09/02 06:17:21;;;;;;;5.80;1.30;;;15.60;99.90;;;;;;5034519;28;20246;-71
2022/09/02 06:19:49;;;;;;;7.83;1.50;;;15.70;99.90;;;;;;5070113;28;20320;-71
2022/09/02 06:22:16;;;;;;;9.00;1.53;;;15.70;99.90;;;;;;5071704;28;20184;-70
2022/09/02 06:24:44;;;;;;;5.93;1.80;;;15.60;99.90;;;;;;5071726;28;20230;-72
2022/09/02 06:27:12;;;;;;;6.73;1.37;;;15.60;99.90;;;;;;5070888;28;20270;-70
2022/09/02 06:29:40;;;;;;;4.27;1.43;;;15.50;99.90;;;;;;5071346;28;20663;-71
2022/09/02 06:32:13;;;;;;;6.03;1.90;;;15.50;99.90;;;;;;5071808;28;20168;-70
2022/09/02 06:34:42;;;;;;;9.37;1.63;;;15.50;99.90;;;;;;5031891;28;20220;-69
2022/09/02 06:37:10;;;;;;;10.73;4.07;;;15.60;99.90;;;;;;5032788;28;20180;-70
2022/09/02 06:39:42;;;;;;;7.93;2.43;;;15.60;99.90;;;;;;5069920;28;20188;-72
2022/09/02 06:42:10;;;;;;;12.90;2.43;;;15.60;99.90;;;;;;5070771;28;20759;-71
2022/09/02 06:44:42;;;;;;;6.97;2.07;;;15.60;99.90;;;;;;5070308;28;20196;-71
2022/09/02 06:47:10;;;;;;;8.90;1.80;;;15.60;99.90;;;;;;5070136;28;20188;-71
2022/09/02 06:49:38;;;;;;;5.13;1.97;;;15.50;99.90;;;;;;5069702;28;20196;-71
2022/09/02 06:52:07;;;;;;;11.60;1.80;;;15.50;99.90;;;;;;5069217;28;20698;-71
2022/09/02 06:54:35;;;;;;;11.07;2.50;;;15.40;99.90;;;;;;5074029;28;20684;-70
2022/09/02 06:57:03;;;;;;;6.07;1.60;;;15.40;99.90;;;;;;5075278;28;20226;-71
2022/09/02 06:59:36;;;;;;;7.63;1.80;;;15.40;99.90;;;;;;5076622;28;20183;-71
2022/09/02 07:02:07;;;;;;;5.83;2.00;;;15.40;99.90;;;;;;5075725;28;20270;-70
2022/09/02 07:07:26;;;;;;;9.07;2.33;;;15.40;99.90;;;;;;5075926;28;20205;-71
2022/09/02 07:09:54;;;;;;;6.90;1.90;;;15.40;99.90;;;;;;5076768;28;20734;-71
2022/09/02 07:12:25;;;;;;;9.00;1.97;;;15.30;99.90;;;;;;5074569;28;20699;-71
2022/09/02 07:14:53;;;;;;;9.87;1.93;;;15.30;99.90;;;;;;5075195;28;20224;-72
2022/09/02 07:17:22;;;;;;;8.57;2.30;;;15.30;99.90;;;;;;5074716;28;20257;-72
2022/09/02 07:19:50;;;;;;;8.67;2.10;;;15.30;99.90;;;;;;5075485;28;20198;-71
2022/09/02 07:22:18;;;;;;;7.90;2.07;;;15.20;99.90;;;;;;5074979;28;20184;-73
2022/09/02 07:24:46;;;;;;;9.37;2.20;;;15.20;99.90;;;;;;5075666;28;20206;-71
2022/09/02 07:27:14;;;;;;;5.87;2.00;;;15.20;99.90;;;;;;5075379;28;20172;-70
2022/09/02 07:29:47;;;;;;;9.87;2.03;;;15.20;99.90;;;;;;5074066;28;20574;-71
2022/09/02 07:32:16;;;;;;;5.70;2.07;;;15.20;99.90;;;;;;5074764;28;20191;-71
2022/09/02 07:34:44;;;;;;;6.50;2.40;;;15.20;99.90;;;;;;5072546;28;20647;-71
2022/09/02 07:37:12;;;;;;;8.17;2.70;;;15.20;99.90;;;;;;5073154;28;20539;-72
2022/09/02 07:39:39;;;;;;;10.33;2.67;;;15.20;99.90;;;;;;5074168;28;20198;-71
2022/09/02 07:42:07;;;;;;;6.93;2.53;;;15.20;99.90;;;;;;5073791;28;20176;-71
2022/09/02 07:44:36;;;;;;;9.30;2.87;;;15.20;99.90;;;;;;5074310;28;20306;-71
2022/09/02 07:47:05;;;;;;;12.10;3.27;;;15.20;99.90;;;;;;5073936;28;20191;-71
2022/09/02 07:49:34;;;;;;;10.80;2.97;;;15.20;99.90;;;;;;5074392;28;20632;-70
2022/09/02 07:52:03;;;;;;;6.00;2.53;;;15.10;99.90;;;;;;5072702;28;20226;-71
2022/09/02 07:54:33;;;;;;;8.50;2.70;;;15.00;99.90;;;;;;5071235;28;20664;-71
2022/09/02 07:57:01;;;;;;;9.80;3.10;;;15.10;99.90;;;;;;5073021;28;20204;-70
2022/09/02 07:59:30;;;;;;;5.57;1.93;;;15.10;99.90;;;;;;5069841;28;20181;-71
2022/09/02 08:01:58;;;;;;;6.70;2.63;;;15.00;99.90;;;;;;5062286;28;20188;-71
2022/09/02 08:04:26;;;;;;;8.67;2.30;;;15.00;99.90;;;;;;5073177;28;20300;-71
2022/09/02 08:06:55;;;;;;;10.17;2.50;;;15.00;99.90;;;;;;5072744;28;20180;-72
2022/09/02 08:09:23;;;;;;;12.20;2.63;;;15.00;99.90;;;;;;5073396;28;20184;-70
2022/09/02 08:11:52;;;;;;;11.40;2.70;;;15.00;99.90;;;;;;5073851;28;20284;-70
2022/09/02 08:14:24;;;;;;;12.97;2.80;;;15.00;99.90;;;;;;5073784;28;20578;-71
2022/09/02 08:16:54;;;;;;;8.43;2.13;;;14.90;99.90;;;;;;5071773;28;20190;-72
2022/09/02 08:19:29;;;;;;;8.10;2.50;;;14.90;99.90;;;;;;5072601;28;20184;-71
2022/09/02 08:22:05;;;;;;;9.40;1.87;;;14.90;99.90;;;;;;5073480;28;20326;-71
2022/09/02 08:24:33;;;;;;;6.60;1.97;;;14.90;99.90;;;;;;5073481;28;20933;-71
2022/09/02 08:27:00;;;;;;;8.93;2.77;;;14.90;99.90;;;;;;5073039;28;20254;-70
2022/09/02 08:29:28;;;;;;;6.97;2.53;;;14.90;99.90;;;;;;5073556;28;20541;-71
2022/09/02 08:31:56;;;;;;;9.87;2.30;;;14.90;99.90;;;;;;5073230;28;20673;-71
2022/09/02 08:34:24;;;;;;;8.30;2.37;;;14.90;99.90;;;;;;5073072;28;20881;-72
2022/09/02 08:36:55;;;;;;;10.70;2.80;;;14.90;99.90;;;;;;5073453;28;20198;-70
2022/09/02 08:39:27;;;;;;;10.83;2.87;;;14.80;99.90;;;;;;5072890;28;20325;-71
2022/09/02 08:42:06;;;;;;;11.87;2.63;;;14.80;99.90;;;;;;5073053;28;20176;-72
2022/09/02 08:44:43;;;;;;;6.63;3.13;;;14.90;99.90;;;;;;5072567;28;20196;-71
2022/09/02 08:47:17;;;;;;;9.87;3.47;;;14.90;99.90;;;;;;5073124;28;20228;-72
2022/09/02 08:49:50;;;;;;;14.90;3.77;;;14.90;99.90;;;;;;5073130;28;20186;-72
2022/09/02 08:52:31;;;;;;;15.47;3.93;;;14.90;99.90;;;;;;5071620;28;20242;-71
2022/09/02 08:55:02;;;;;;;13.23;3.53;;;14.90;99.90;;;;;;5072865;28;20222;-71
2022/09/02 08:57:32;;;;;;;13.10;2.67;;;14.90;99.90;;;;;;5072820;28;20184;-71
2022/09/02 09:00:01;;;;;;;10.73;2.53;;;14.90;99.90;;;;;;5055100;28;20559;-71
2022/09/02 09:02:48;;;;;;;11.33;3.13;;;14.90;99.90;;;;;;5072744;28;20178;-72
2022/09/02 09:05:34;;;;;;;15.40;3.03;;;14.80;99.90;;;;;;5072578;28;20223;-72
2022/09/02 09:08:01;;;;;;;15.23;2.90;;;14.90;99.90;;;;;;5072604;28;20229;-70
2022/09/02 09:10:37;;;;;;;18.33;3.50;;;14.90;99.90;;;;;;5072439;28;20226;-75
2022/09/02 09:13:15;;;;;;;15.63;3.57;;;14.90;99.90;;;;;;5072635;28;20213;-72
2022/09/02 09:16:15;;;;;;;15.13;3.27;;;14.80;99.90;;;;;;5032907;28;20262;-71
2022/09/02 09:19:33;;;;;;;21.20;3.27;;;14.70;99.90;;;;;;5028377;28;20191;-72
2022/09/02 09:22:06;;;;;;;12.57;2.93;;;14.60;99.90;;;;;;5063371;28;20271;-71
2022/09/02 09:24:41;;;;;;;18.37;3.20;;;14.50;99.90;;;;;;5072308;28;20257;-71
2022/09/02 09:27:20;;;;;;;13.80;2.93;;;14.40;99.90;;;;;;5071545;28;20218;-70
2022/09/02 09:29:50;;;;;;;13.93;2.80;;;14.30;99.90;;;;;;5072252;28;20191;-71
2022/09/02 09:32:33;;;;;;;17.33;3.40;;;14.20;99.90;;;;;;5070889;28;20199;-70
2022/09/02 09:35:10;;;;;;;15.50;3.13;;;14.20;99.90;;;;;;5069769;28;20215;-70
2022/09/02 09:37:41;;;;;;;18.27;3.13;;;14.20;99.90;;;;;;5056348;28;20236;-70
2022/09/02 09:40:20;;;;;;;15.83;3.30;;;14.00;99.90;;;;;;5071885;28;20195;-71
2022/09/02 09:42:59;;;;;;;19.03;3.10;;;14.00;99.90;;;;;;5072246;28;20182;-71
2022/09/02 09:45:34;;;;;;;16.13;3.50;;;14.00;99.90;;;;;;5071752;28;20543;-70
2022/09/02 09:48:18;;;;;;;10.83;2.57;;;14.00;99.90;;;;;;5071539;28;20586;-71
2022/09/02 09:50:48;;;;;;;18.20;3.93;;;14.00;99.90;;;;;;5071777;28;20276;-71
2022/09/02 09:53:20;;;;;;;18.53;3.00;;;14.00;99.90;;;;;;5071566;28;20288;-70
2022/09/02 09:56:01;;;;;;;17.73;2.97;;;14.00;99.90;;;;;;5073014;28;20743;-72
2022/09/02 09:58:52;;;;;;;16.17;3.80;;;14.00;99.90;;;;;;5090319;27;20531;-71
2022/09/02 10:01:28;;;;;;;15.67;3.33;;;14.00;99.90;;;;;;5100017;28;20271;-71
2022/09/02 10:04:07;;;;;;;13.60;3.50;;;14.00;99.90;;;;;;5086671;28;20181;-71
2022/09/02 10:06:47;;;;;;;15.30;3.57;;;14.00;99.90;;;;;;5099653;28;20178;-72
2022/09/02 10:09:14;;;;;;;18.70;4.03;;;14.00;99.90;;;;;;5091313;28;20544;-72
2022/09/02 10:12:05;;;;;;;16.80;3.40;;;14.00;99.90;;;;;;5102980;28;20547;-71
2022/09/02 10:14:51;;;;;;;13.60;3.77;;;14.00;99.90;;;;;;5110455;28;20162;-71
2022/09/02 10:17:25;;;;;;;13.67;3.70;;;13.90;99.90;;;;;;5090473;28;20298;-71
2022/09/02 10:20:13;;;;;;;20.20;4.33;;;13.90;99.90;;;;;;5091021;28;20505;-70
2022/09/02 10:23:20;;;;;;;11.13;3.37;;;14.00;99.90;;;;;;5090942;28;20167;-70
2022/09/02 10:26:05;;;;;;;11.07;2.80;;;14.00;99.90;;;;;;5110764;28;20575;-70
2022/09/02 10:28:57;;;;;;;16.47;3.47;;;14.00;99.90;;;;;;5110644;28;20705;-71
2022/09/02 10:31:54;;;;;;;15.40;3.33;;;14.00;99.90;;;;;;5110537;28;20182;-71
2022/09/02 10:34:43;;;;;;;16.63;3.50;;;14.00;99.90;;;;;;5111717;28;20174;-70
2022/09/02 10:37:28;;;;;;;17.27;3.27;;;14.00;99.90;;;;;;5110308;28;20208;-71
2022/09/02 10:40:18;;;;;;;15.67;3.43;;;14.00;99.90;;;;;;5111586;28;20182;-71
2022/09/02 10:43:05;;;;;;;13.90;4.47;;;14.10;99.90;;;;;;5110441;28;20203;-71
2022/09/02 10:45:57;;;;;;;13.03;4.50;;;14.10;99.90;;;;;;5110227;28;20167;-71
2022/09/02 10:49:10;;;;;;;20.70;6.07;;;14.10;99.90;;;;;;5110593;28;20187;-70
2022/09/02 10:51:38;;;;;;;16.10;4.40;;;14.10;99.90;;;;;;5098667;28;20561;-71
2022/09/02 10:54:47;;;;;;;14.60;3.77;;;14.10;99.90;;;;;;5110367;28;20182;-72
2022/09/02 10:57:33;;;;;;;12.23;3.63;;;14.10;99.90;;;;;;5102276;28;20325;-72
2022/09/02 11:00:18;;;;;;;15.07;3.70;;;14.10;99.90;;;;;;5109234;28;20636;-71
2022/09/02 11:03:12;;;;;;;15.43;3.93;;;14.10;99.90;;;;;;5104321;28;20233;-73
2022/09/02 11:06:00;;;;;;;13.63;4.40;;;14.10;99.90;;;;;;5091158;28;20223;-71
2022/09/02 11:08:35;;;;;;;15.97;4.40;;;14.00;99.90;;;;;;5086239;28;20175;-72
2022/09/02 11:11:20;;;;;;;19.37;4.47;;;14.00;99.90;;;;;;5096506;28;20174;-72
2022/09/02 11:14:04;;;;;;;18.43;3.63;;;14.00;99.90;;;;;;5089041;28;20183;-72
2022/09/02 11:16:46;;;;;;;18.97;4.93;;;14.10;99.90;;;;;;5076033;28;20324;-72
2022/09/02 11:19:35;;;;;;;11.03;3.27;;;14.10;99.90;;;;;;5059404;28;20195;-71
2022/09/02 11:22:09;;;;;;;11.17;3.13;;;14.10;99.90;;;;;;5075843;28;20547;-71
2022/09/02 11:25:11;;;;;;;8.10;3.40;;;14.10;99.90;;;;;;5079642;28;20184;-71
2022/09/02 11:27:54;;;;;;;13.93;2.90;;;14.10;99.90;;;;;;5070882;28;20195;-71
2022/09/02 11:30:27;;;;;;;10.90;2.63;;;14.10;99.90;;;;;;5075970;28;20221;-71
2022/09/02 11:33:13;;;;;;;8.63;2.50;;;14.10;99.90;;;;;;5076479;28;20346;-71
2022/09/02 11:35:41;;;;;;;10.10;2.27;;;14.10;99.90;;;;;;5075674;28;20203;-72
2022/09/02 11:38:09;;;;;;;12.67;2.77;;;14.00;99.90;;;;;;5092597;28;20237;-71
2022/09/02 11:41:15;;;;;;;15.57;3.40;;;14.00;99.90;;;;;;5095747;28;20215;-71
2022/09/02 11:44:20;;;;;;;15.67;3.20;;;14.00;99.90;;;;;;5055226;28;20508;-72
2022/09/02 11:46:53;;;;;;;14.17;3.47;;;14.00;99.90;;;;;;5068578;28;20205;-72
2022/09/02 11:50:00;;;;;;;15.90;4.90;;;14.00;99.90;;;;;;5095630;28;20211;-72
2022/09/02 11:52:34;;;;;;;16.53;4.07;;;14.00;99.90;;;;;;5082943;28;20193;-72
2022/09/02 11:55:15;;;;;;;16.43;3.27;;;14.00;99.90;;;;;;5075632;28;20188;-72
2022/09/02 11:57:51;;;;;;;11.23;3.40;;;14.00;99.90;;;;;;5084576;28;20612;-71
2022/09/02 12:00:37;;;;;;;14.13;3.37;;;14.00;99.90;;;;;;5095197;28;20176;-71
2022/09/02 12:03:04;;;;;;;12.80;2.83;;;14.10;99.90;;;;;;5077808;28;20180;-70
2022/09/02 12:05:32;;;;;;;10.13;2.90;;;14.10;99.90;;;;;;5088461;28;20190;-71
2022/09/02 12:08:12;;;;;;;13.97;3.43;;;14.20;99.90;;;;;;5095031;28;20179;-71
2022/09/02 12:10:44;;;;;;;15.17;3.43;;;14.20;99.90;;;;;;5095321;28;20171;-70
2022/09/02 12:13:39;;;;;;;16.93;3.07;;;14.20;99.90;;;;;;5083622;28;20195;-71
2022/09/02 12:16:30;;;;;;;11.40;2.63;;;14.20;99.90;;;;;;5074644;28;20179;-70
2022/09/02 12:18:58;;;;;;;16.53;2.80;;;14.20;99.90;;;;;;5071706;28;20278;-71
2022/09/02 12:21:28;;;;;;;16.47;3.10;;;14.20;99.90;;;;;;5076145;28;20182;-71
2022/09/02 12:23:56;;;;;;;11.17;2.40;;;14.40;99.90;;;;;;5094924;28;20172;-71
2022/09/02 12:26:44;;;;;;;13.20;2.33;;;14.40;99.90;;;;;;5094666;28;20670;-70
2022/09/02 12:29:23;;;;;;;12.97;2.80;;;14.50;99.90;;;;;;5090708;28;20222;-70
2022/09/02 12:31:53;;;;;;;12.13;2.93;;;14.50;99.90;;;;;;5086731;28;20211;-70
2022/09/02 12:34:45;;;;;;;11.73;3.03;;;14.50;99.90;;;;;;5093036;28;20266;-71
2022/09/02 12:37:52;;;;;;;13.77;3.00;;;14.50;99.90;;;;;;5092098;28;20195;-71
2022/09/02 12:40:28;;;;;;;14.60;2.70;;;14.40;99.90;;;;;;5073949;28;20191;-70
2022/09/02 12:43:02;;;;;;;14.03;2.90;;;14.40;99.90;;;;;;5087703;28;20213;-71
2022/09/02 12:45:33;;;;;;;18.20;2.80;;;14.50;99.90;;;;;;5094291;28;20167;-70
2022/09/02 12:48:18;;;;;;;19.70;2.97;;;14.50;99.90;;;;;;5094368;28;20175;-70
2022/09/02 12:50:54;;;;;;;18.40;2.93;;;14.50;99.90;;;;;;5077887;28;20218;-71
2022/09/02 12:53:25;;;;;;;24.23;3.30;;;14.50;99.90;;;;;;5074486;28;20645;-71
2022/09/02 12:56:13;;;;;;;22.93;3.67;;;14.40;99.90;;;;;;5073752;28;20266;-69
2022/09/02 12:58:47;;;;;;;13.97;2.70;;;14.40;99.90;;;;;;5074753;28;20250;-70
2022/09/02 13:01:18;;;;;;;12.50;3.63;;;14.40;99.90;;;;;;5092823;28;20183;-71
2022/09/02 13:03:54;;;;;;;17.67;2.80;;;14.30;99.90;;;;;;5073790;28;20589;-71
2022/09/02 13:06:25;;;;;;;11.63;2.33;;;14.10;99.90;;;;;;5073747;28;20182;-72
2022/09/02 13:09:18;;;;;;;12.47;2.17;;;13.90;99.90;;;;;;5073754;28;20201;-71
2022/09/02 13:11:49;;;;;;;13.17;2.70;;;13.80;99.90;;;;;;5073845;28;20179;-70
2022/09/02 13:14:29;;;;;;;14.33;2.80;;;13.70;99.90;;;;;;5075579;28;20177;-71
2022/09/02 13:17:17;;;;;;;13.97;2.83;;;13.70;99.90;;;;;;5085610;28;20211;-70